Nearby METAR Reports

 

KALB - Albany, New York, USA
Distance from station: E 47mi, 75km
Updated: Tue, 23-Jul-2019 12:51pm EDT
Mostly cloudy
Mostly cloudy
 Wind from NW
Wind: NW 6 mph , 9 km/h
Temperature: 73°F , 23°C
Dew Point: 59°F , 15°C
Humidity: 61%
Barometer: 29.87 inHg , 1011.5 hPa
Clouds: Mostly cloudy
Visibility: 10 miles , 16 km
Cloud details: Partly cloudy 2300 ft
Mostly cloudy 10000 ft
Mostly cloudy 25000 ft
2019/07/23 16:51 KALB 231651Z 32005KT 10SM SCT023 BKN100 BKN250 23/15 A2987 RMK AO2 SLP112 T02330150
KSLK - Saranac Lake, New York, USA
Distance from station: N 110mi, 177km
Updated: Tue, 23-Jul-2019 12:51pm EDT
Partly cloudy
Partly cloudy
 Wind from NNW
Wind: NNW 7 mph , 11 km/h
Temperature: 72°F , 22°C
Dew Point: 50°F , 10°C
Humidity: 47%
Barometer: 29.88 inHg , 1011.9 hPa
Clouds: Partly cloudy
Visibility: 10 miles , 16 km
Cloud details: Few Clouds 5000 ft
Partly cloudy 8500 ft
2019/07/23 16:51 KSLK 231651Z AUTO 33006KT 10SM FEW050 SCT085 22/10 A2988 RMK AO2 SLP114 T02220100
 
KSYR - Syracuse, New York, USA
Distance from station: W 73mi, 117km
Updated: Tue, 23-Jul-2019 12:54pm EDT
Mostly cloudy
Mostly cloudy
 Wind from calm
Wind: Calm
Temperature: 77°F , 25°C
Dew Point: 55°F , 13°C
Humidity: 47%
Barometer: 29.89 inHg , 1012.2 hPa
Clouds: Mostly cloudy
Visibility: 10 miles , 16 km
Cloud details: Partly cloudy 5000 ft
Mostly cloudy 15000 ft
2019/07/23 16:54 KSYR 231654Z 00000KT 10SM SCT050 BKN150 25/13 A2989 RMK AO2 SLP116 T02500133
KBGM - Binghamton, New York, USA
Distance from station: SW 78mi, 126km
Updated: Tue, 23-Jul-2019 12:53am EDT
NOT Current
Light rain, Mist, Overcast
Light rain, Mist, Overcast
 Wind from NNE
Wind: NNE 6 mph , 9 km/h
Temperature: 63°F , 17°C
Dew Point: 61°F , 16°C
Humidity: 94%
Barometer: 29.86 inHg , 1011.2 hPa
Summary: Light rain, Mist
Clouds: Overcast
Visibility: 4 miles , 6 km
Cloud details: Overcast 500 ft
2019/07/23 04:53 KBGM 230453Z AUTO 03005KT 4SM -RA BR OVC005 17/16 A2986 RMK AO2 RAB37 CIG 003V009 SLP106 P0000 T01670156 402110161
 
KRME - Rome, New York, USA
Distance from station: WNW 43mi, 69km
Updated: Tue, 23-Jul-2019 12:53pm EDT
Clear
Clear
 Wind from W
Wind: W 6 mph , 9 km/h
Temperature: 77°F , 25°C
Dew Point: 54°F , 12°C
Humidity: 44%
Barometer: 29.89 inHg , 1012.2 hPa
Clouds: Clear
Visibility: 10 miles , 16 km
2019/07/23 16:53 KRME 231653Z 28005KT 10SM CLR 25/12 A2989 RMK AO2 SLP116 T02500122
KJFK - New York, New York, USA
Distance from station: SSE 159mi, 256km
Updated: Tue, 23-Jul-2019 12:51pm EDT
Overcast
Overcast
 Wind from NNE
Wind: NNE 13 mph , 20 km/h
Temperature: 73°F , 23°C
Dew Point: 64°F , 18°C
Humidity: 74%
Barometer: 29.83 inHg , 1010.2 hPa
Clouds: Overcast
Visibility: 10 miles , 16 km
Cloud details: Mostly cloudy 2300 ft
Mostly cloudy 8000 ft
Overcast 15000 ft
2019/07/23 16:51 KJFK 231651Z 02011KT 10SM BKN023 BKN080 OVC150 23/18 A2983 RMK AO2 SLP100 T02330183
 
KROC - Rochester, New York, USA
Distance from station: W 150mi, 242km
Updated: Tue, 23-Jul-2019 12:54pm EDT
Partly cloudy
Partly cloudy
 Wind from N
Wind: N 10 mph , 17 km/h
Temperature: 77°F , 25°C
Dew Point: 55°F , 13°C
Humidity: 47%
Barometer: 29.91 inHg , 1012.9 hPa
Clouds: Partly cloudy
Visibility: 10 miles , 16 km
Cloud details: Few Clouds 4700 ft
Partly cloudy 6500 ft
Partly cloudy 10000 ft
2019/07/23 16:54 KROC 231654Z 01009KT 320V030 10SM FEW047 SCT065 SCT100 25/13 A2991 RMK AO2 SLP128 T02500128
KART - Watertown, New York, USA
Distance from station: NNW 103mi, 166km
Updated: Tue, 23-Jul-2019 12:56pm EDT
Clear
Clear
 Wind from W
Wind: W 13 mph , 20 km/h
Temperature: 77°F , 25°C
Dew Point: 61°F , 16°C
Humidity: 57%
Barometer: 29.87 inHg , 1011.5 hPa
Clouds: Clear
Visibility: 10 miles , 16 km
2019/07/23 16:56 KART 231656Z AUTO 26011KT 10SM CLR 25/16 A2987 RMK AO2 SLP110 T02500156
 
KELM - Elmira-Corning, New York, USA
Distance from station: SSW 121mi, 195km
Updated: Tue, 23-Jul-2019 12:53pm EDT
Mostly cloudy
Mostly cloudy
 Wind from E
Wind: E 6 mph , 9 km/h
Temperature: 75°F , 24°C
Dew Point: 57°F , 14°C
Humidity: 54%
Barometer: 29.91 inHg , 1012.9 hPa
Clouds: Mostly cloudy
Visibility: 10 miles , 16 km
Cloud details: Mostly cloudy 9500 ft
2019/07/23 16:53 KELM 231653Z 08005KT 10SM BKN095 24/14 A2991 RMK AO2 SLP122 T02440139
KJHW - Jamestown, New York, USA
Distance from station: SW 238mi, 383km
Updated: Tue, 23-Jul-2019 12:56pm EDT
Partly cloudy
Partly cloudy
 Wind from varies
Wind: varies 7 mph , 11 km/h, Gust: 18 mph , 30 km/h
Temperature: 70°F , 21°C
Dew Point: 54°F , 12°C
Humidity: 57%
Barometer: 29.99 inHg , 1015.6 hPa
Clouds: Partly cloudy
Visibility: 10 miles , 16 km
Cloud details: Partly cloudy 4200 ft
2019/07/23 16:56 KJHW 231656Z AUTO VRB06G16KT 10SM SCT042 21/12 A2999 RMK AO2 SLP151 T02110117
 
KMSS - Massena, New York, USA
Distance from station: N 141mi, 232km
Updated: Tue, 23-Jul-2019 12:53pm EDT
Few Clouds
Few Clouds
 Wind from WNW
Wind: WNW 10 mph , 17 km/h
Temperature: 77°F , 25°C
Dew Point: 59°F , 15°C
Humidity: 54%
Barometer: 29.87 inHg , 1011.5 hPa
Clouds: Few Clouds
Visibility: 10 miles , 16 km
Cloud details: Few Clouds 5000 ft
2019/07/23 16:53 KMSS 231653Z AUTO 29009KT 10SM FEW050 25/15 A2987 RMK AO2 SLP113 T02500150
KBUF - Buffalo, New York, USA
Distance from station: W 204mi, 328km
Updated: Tue, 23-Jul-2019 12:54pm EDT
Partly cloudy
Partly cloudy
 Wind from WNW
Wind: WNW 9 mph , 15 km/h
Temperature: 75°F , 24°C
Dew Point: 54°F , 12°C
Humidity: 47%
Barometer: 29.93 inHg , 1013.5 hPa
Clouds: Partly cloudy
Visibility: 10 miles , 16 km
Cloud details: Partly cloudy 4400 ft
Partly cloudy 6000 ft
Partly cloudy 8000 ft
Partly cloudy 22000 ft
2019/07/23 16:54 KBUF 231654Z 29008KT 10SM SCT044 SCT060 SCT080 SCT220 24/12 A2993 RMK AO2 SLP131 MDT CU DSNT NW-NE-SE-S T02390122